createdAt,value
2019-03-05T00:03:41.610Z,2.97
2019-03-05T00:08:54.252Z,2.40
2019-03-05T00:14:06.244Z,2.40
2019-03-05T00:19:35.326Z,1.97
2019-03-05T00:25:10.124Z,3.17
2019-03-05T00:30:43.715Z,3.60
2019-03-05T00:36:17.632Z,2.57
2019-03-05T00:41:44.075Z,3.13
2019-03-05T00:47:15.912Z,3.60
2019-03-05T00:53:01.641Z,3.00
2019-03-05T00:58:36.240Z,3.77
2019-03-05T01:04:42.533Z,2.70
2019-03-05T01:09:51.901Z,2.30
2019-03-05T01:15:01.125Z,3.37
2019-03-05T01:20:11.460Z,3.55
2019-03-05T01:25:45.306Z,2.40
2019-03-05T01:31:19.491Z,2.27
2019-03-05T01:36:32.873Z,2.70
2019-03-05T01:41:42.413Z,3.00
2019-03-05T01:46:49.762Z,2.47
2019-03-05T01:51:59.631Z,1.33
2019-03-05T01:57:09.124Z,1.73
2019-03-05T02:02:21.781Z,1.50
2019-03-05T02:07:35.459Z,1.60
2019-03-05T02:12:50.830Z,1.30
2019-03-05T02:18:02.598Z,1.87
2019-03-05T02:23:31.209Z,1.27
2019-03-05T02:29:05.157Z,1.10
2019-03-05T02:34:52.871Z,1.17
2019-03-05T02:40:23.627Z,1.60
2019-03-05T02:45:44.809Z,1.73
2019-03-05T02:51:23.328Z,1.93
2019-03-05T02:56:43.042Z,1.73
2019-03-05T03:02:09.331Z,2.97
2019-03-05T03:07:19.212Z,3.25
2019-03-05T03:12:27.748Z,2.33
2019-03-05T03:17:41.545Z,2.93
2019-03-05T03:22:57.808Z,3.20
2019-03-05T03:28:06.349Z,3.57
2019-03-05T03:33:16.274Z,3.90
2019-03-05T03:38:31.088Z,3.77
2019-03-05T03:43:44.325Z,3.30
2019-03-05T03:48:56.770Z,2.97
2019-03-05T03:54:05.398Z,2.80
2019-03-05T03:59:35.590Z,2.70
2019-03-05T04:04:44.253Z,3.27
2019-03-05T04:09:55.053Z,2.77
2019-03-05T04:15:03.491Z,3.90
2019-03-05T04:20:15.471Z,4.20
2019-03-05T04:25:25.247Z,3.87
2019-03-05T04:30:35.097Z,4.20
2019-03-05T04:35:47.818Z,4.27
2019-03-05T04:40:57.923Z,5.83
2019-03-05T04:46:31.139Z,4.83
2019-03-05T04:51:46.895Z,4.97
2019-03-05T04:56:57.847Z,7.23
2019-03-05T05:02:06.702Z,7.43
2019-03-05T05:07:19.995Z,6.93
2019-03-05T05:12:31.655Z,7.00
2019-03-05T05:17:47.988Z,7.20
2019-03-05T05:22:55.971Z,7.67
2019-03-05T05:28:04.170Z,7.30
2019-03-05T05:33:14.094Z,7.53
2019-03-05T05:38:26.344Z,10.05
2019-03-05T05:43:34.247Z,8.87
2019-03-05T05:54:16.868Z,8.73
2019-03-05T05:59:26.753Z,6.65
2019-03-05T06:04:39.427Z,7.03
2019-03-05T06:09:49.403Z,6.00
2019-03-05T06:20:26.979Z,6.35
2019-03-05T06:25:39.565Z,6.12
2019-03-05T06:30:49.511Z,5.77
2019-03-05T06:36:03.153Z,6.43
2019-03-05T06:41:13.161Z,6.10
2019-03-05T06:46:25.788Z,6.85
2019-03-05T06:51:40.201Z,7.60
2019-03-05T06:56:52.237Z,8.00
2019-03-05T07:01:58.571Z,8.87
2019-03-05T07:07:07.494Z,8.67
2019-03-05T07:12:52.075Z,8.33
2019-03-05T07:18:25.381Z,8.33
2019-03-05T07:24:05.794Z,8.07
2019-03-05T07:29:18.631Z,7.87
2019-03-05T07:34:31.140Z,6.33
2019-03-05T07:39:41.893Z,7.23
2019-03-05T07:44:53.237Z,6.53
2019-03-05T07:50:06.689Z,6.40
2019-03-05T07:55:20.487Z,6.60
2019-03-05T08:00:33.058Z,6.60
2019-03-05T08:05:50.870Z,6.33
2019-03-05T08:11:03.652Z,6.07
2019-03-05T08:16:19.223Z,7.33
2019-03-05T08:21:30.786Z,7.63
2019-03-05T08:26:45.287Z,9.10
2019-03-05T08:31:56.029Z,9.40
2019-03-05T08:37:05.999Z,9.10
2019-03-05T08:42:17.739Z,8.27
2019-03-05T08:47:26.739Z,9.70
2019-03-05T08:52:35.804Z,8.90
2019-03-05T08:57:43.928Z,9.47
2019-03-05T09:02:57.425Z,10.43
2019-03-05T09:08:09.187Z,8.53
2019-03-05T09:13:32.426Z,8.78
2019-03-05T09:18:30.334Z,9.10
2019-03-05T09:23:37.845Z,8.30
2019-03-05T09:28:52.461Z,8.40
2019-03-05T09:34:04.997Z,8.03
2019-03-05T09:39:15.875Z,8.33
2019-03-05T09:44:28.506Z,7.77
2019-03-05T09:49:36.365Z,8.87
2019-03-05T09:54:48.230Z,7.97
2019-03-05T10:00:02.966Z,6.67
2019-03-05T10:05:16.131Z,5.67
2019-03-05T10:10:29.464Z,4.92
2019-03-05T10:15:43.244Z,4.70
2019-03-05T10:20:55.089Z,5.07
2019-03-05T10:26:06.730Z,5.00
2019-03-05T10:31:18.898Z,3.63
2019-03-05T10:36:29.881Z,3.87
2019-03-05T10:41:39.064Z,2.80
2019-03-05T10:46:47.417Z,2.83
2019-03-05T10:51:55.748Z,2.60
2019-03-05T10:57:06.550Z,2.43
2019-03-05T11:02:15.777Z,2.40
2019-03-05T11:07:26.760Z,2.60
2019-03-05T11:12:37.681Z,2.83
2019-03-05T11:17:47.097Z,2.70
2019-03-05T11:22:57.848Z,3.00
2019-03-05T11:28:09.722Z,2.60
2019-03-05T11:33:23.285Z,3.10
2019-03-05T11:38:38.855Z,2.40
2019-03-05T11:43:51.532Z,1.70
2019-03-05T11:49:05.803Z,1.60
2019-03-05T11:54:13.850Z,1.67
2019-03-05T11:59:23.053Z,1.93
2019-03-05T12:04:35.623Z,1.82
2019-03-05T12:09:48.241Z,1.50
2019-03-05T12:14:58.949Z,1.80
2019-03-05T12:20:10.187Z,1.87
2019-03-05T12:25:24.068Z,1.92
2019-03-05T12:30:35.828Z,1.82
2019-03-05T12:35:43.705Z,1.87
2019-03-05T12:40:57.277Z,2.00
2019-03-05T12:46:08.917Z,2.17
2019-03-05T12:51:18.755Z,1.40
2019-03-05T12:56:28.468Z,1.80
2019-03-05T13:01:39.606Z,1.67
2019-03-05T13:06:51.050Z,1.97
2019-03-05T13:11:58.331Z,1.73
2019-03-05T13:17:10.946Z,1.90
2019-03-05T13:22:28.906Z,1.53
2019-03-05T13:27:37.478Z,2.13
2019-03-05T13:32:47.312Z,1.60
2019-03-05T13:38:03.127Z,2.60
2019-03-05T13:43:11.246Z,1.93
2019-03-05T13:48:34.523Z,2.10
2019-03-05T13:54:21.379Z,1.70
2019-03-05T13:59:55.528Z,1.93
2019-03-05T14:05:13.733Z,2.37
2019-03-05T14:10:22.693Z,2.20
2019-03-05T14:15:37.025Z,1.90
2019-03-05T14:20:47.079Z,1.60
2019-03-05T14:25:56.212Z,2.23
2019-03-05T14:31:09.003Z,1.47
2019-03-05T14:36:19.085Z,1.77
2019-03-05T14:41:25.183Z,2.13
2019-03-05T14:46:39.725Z,1.83
2019-03-05T14:51:50.958Z,1.40
2019-03-05T14:57:00.128Z,1.23
2019-03-05T15:02:11.338Z,1.87
2019-03-05T15:07:21.385Z,1.32
2019-03-05T15:12:30.309Z,1.30
2019-03-05T15:17:41.463Z,1.43
2019-03-05T15:22:48.558Z,1.77
2019-03-05T15:27:58.950Z,1.60
2019-03-05T15:33:07.951Z,1.37
2019-03-05T15:38:16.941Z,2.20
2019-03-05T15:43:28.709Z,1.10
2019-03-05T15:48:37.151Z,1.65
2019-03-05T15:53:49.814Z,1.53
2019-03-05T15:58:59.102Z,1.00
2019-03-05T16:04:10.220Z,1.17
2019-03-05T16:09:20.235Z,0.90
2019-03-05T16:14:32.887Z,1.10
2019-03-05T16:19:41.757Z,1.10
2019-03-05T16:25:13.828Z,1.00
2019-03-05T16:30:39.728Z,1.30
2019-03-05T16:36:05.480Z,1.40
2019-03-05T16:41:41.832Z,1.03
2019-03-05T16:46:58.153Z,1.17
2019-03-05T16:52:22.305Z,1.50
2019-03-05T16:57:49.465Z,1.53
2019-03-05T17:03:07.591Z,1.37
2019-03-05T17:08:42.485Z,1.50
2019-03-05T17:13:53.225Z,1.40
2019-03-05T17:19:00.550Z,1.33
2019-03-05T17:24:10.565Z,2.00
2019-03-05T17:29:21.656Z,2.40
2019-03-05T17:35:52.643Z,1.87
2019-03-05T17:41:04.580Z,1.43
2019-03-05T17:46:14.987Z,1.63
2019-03-05T17:51:25.299Z,1.60
2019-03-05T17:56:34.275Z,1.90
2019-03-05T18:01:46.217Z,2.03
2019-03-05T18:06:59.361Z,1.77
2019-03-05T18:12:07.007Z,1.73
2019-03-05T18:17:19.625Z,2.35
2019-03-05T18:22:32.359Z,3.30
2019-03-05T18:27:43.203Z,2.67
2019-03-05T18:32:56.003Z,2.27
2019-03-05T18:38:05.094Z,2.03
2019-03-05T18:43:14.330Z,3.63
2019-03-05T18:48:25.988Z,3.37
2019-03-05T18:53:40.274Z,3.00
2019-03-05T18:58:52.887Z,2.10
2019-03-05T19:04:03.781Z,2.03
2019-03-05T19:09:18.234Z,2.33
2019-03-05T19:14:31.758Z,2.60
2019-03-05T19:19:40.677Z,2.90
2019-03-05T19:24:49.522Z,2.93
2019-03-05T19:30:02.245Z,3.23
2019-03-05T19:35:13.318Z,3.40
2019-03-05T19:40:24.131Z,4.53
2019-03-05T19:45:39.598Z,4.60
2019-03-05T19:50:50.397Z,4.90
2019-03-05T19:55:59.860Z,4.80
2019-03-05T20:01:11.718Z,4.33
2019-03-05T20:06:19.005Z,4.80
2019-03-05T20:11:31.688Z,4.93
2019-03-05T20:17:00.107Z,5.00
2019-03-05T20:22:11.243Z,5.77
2019-03-05T20:27:22.278Z,5.03
2019-03-05T20:32:33.159Z,4.10
2019-03-05T20:37:45.967Z,4.00
2019-03-05T20:42:56.707Z,3.33
2019-03-05T20:48:09.065Z,3.17
2019-03-05T20:53:18.063Z,2.70
2019-03-05T20:58:27.399Z,2.98
2019-03-05T21:03:36.466Z,3.33
2019-03-05T21:08:47.279Z,3.57
2019-03-05T21:13:54.649Z,2.90
2019-03-05T21:19:02.594Z,3.40
2019-03-05T21:24:15.591Z,4.30
2019-03-05T21:29:25.411Z,4.42
2019-03-05T21:34:36.330Z,3.33
2019-03-05T21:39:45.309Z,3.60
2019-03-05T21:44:56.073Z,3.43
2019-03-05T21:50:03.416Z,3.33
2019-03-05T21:55:14.415Z,3.47
2019-03-05T22:00:27.812Z,2.85
2019-03-05T22:05:40.462Z,3.00
2019-03-05T22:10:56.099Z,3.50
2019-03-05T22:16:06.803Z,3.10
2019-03-05T22:21:18.519Z,3.83
2019-03-05T22:26:29.274Z,3.33
2019-03-05T22:31:40.427Z,3.57
2019-03-05T22:36:48.426Z,3.37
2019-03-05T22:41:58.284Z,3.70
2019-03-05T22:47:11.848Z,3.00
2019-03-05T22:52:21.190Z,3.70
2019-03-05T22:57:34.116Z,3.20
2019-03-05T23:02:43.749Z,2.80
2019-03-05T23:07:53.635Z,3.02
2019-03-05T23:13:04.454Z,3.53
2019-03-05T23:18:11.974Z,2.73
2019-03-05T23:23:21.872Z,2.70
2019-03-05T23:28:30.314Z,2.87
2019-03-05T23:33:40.146Z,3.20
2019-03-05T23:38:49.999Z,3.30
2019-03-05T23:43:57.290Z,3.00
2019-03-05T23:49:10.119Z,3.23
2019-03-05T23:54:18.794Z,3.40
2019-03-05T23:59:30.500Z,3.30
